Time;durP1;ratioP1;P1;durP2;ratioP2;P2;SDS_P1;SDS_P2;PMS_P1;PMS_P2;Temp;Humidity;BMP_temperature;BMP_pressure;BME280_temperature;BME280_humidity;BME280_pressure;Samples;Min_cycle;Max_cycle;Signal;HPM_P1;HPM_P2
2022/03/13 00:02:01;;;;;;;41.50;20.67;;;1.90;57.20;;;;;;5029555;28;20457;-60
2022/03/13 00:04:27;;;;;;;46.07;22.10;;;1.90;57.20;;;;;;5026338;28;20457;-58
2022/03/13 00:06:55;;;;;;;43.90;20.43;;;1.90;57.20;;;;;;5021627;28;20411;-59
2022/03/13 00:09:22;;;;;;;43.70;21.40;;;1.80;57.30;;;;;;5030310;28;20301;-59
2022/03/13 00:11:53;;;;;;;42.80;21.83;;;1.80;57.30;;;;;;5030814;28;20421;-60
2022/03/13 00:14:20;;;;;;;41.57;22.17;;;1.70;57.90;;;;;;5028481;28;20450;-59
2022/03/13 00:16:47;;;;;;;47.53;22.00;;;1.70;57.60;;;;;;5030369;28;20432;-58
2022/03/13 00:19:13;;;;;;;42.57;21.00;;;1.60;57.80;;;;;;5028276;28;20433;-59
2022/03/13 00:21:40;;;;;;;43.00;22.00;;;1.60;58.00;;;;;;5041670;28;20478;-58
2022/03/13 00:24:07;;;;;;;42.20;21.80;;;1.60;58.20;;;;;;5042654;28;20188;-59
2022/03/13 00:26:34;;;;;;;49.80;22.53;;;1.60;58.30;;;;;;5037986;28;20925;-59
2022/03/13 00:29:00;;;;;;;43.63;22.17;;;1.60;58.40;;;;;;5027826;28;20430;-59
2022/03/13 00:31:26;;;;;;;44.73;23.10;;;1.60;58.10;;;;;;5028051;28;20513;-59
2022/03/13 00:33:51;;;;;;;46.37;22.27;;;1.60;58.20;;;;;;5027749;28;20256;-57
2022/03/13 00:36:17;;;;;;;50.37;22.67;;;1.50;58.10;;;;;;5027821;28;20185;-58
2022/03/13 00:38:43;;;;;;;51.03;23.13;;;1.50;58.30;;;;;;5011090;28;20182;-59
2022/03/13 00:41:09;;;;;;;44.27;22.97;;;1.50;58.50;;;;;;5021560;28;20195;-58
2022/03/13 00:43:34;;;;;;;43.97;22.27;;;1.40;58.40;;;;;;5011013;28;20164;-59
2022/03/13 00:46:00;;;;;;;47.73;24.00;;;1.40;58.70;;;;;;5024904;28;21055;-58
2022/03/13 00:48:28;;;;;;;47.80;26.17;;;1.40;58.80;;;;;;5030111;28;20534;-59
2022/03/13 00:50:54;;;;;;;49.33;24.10;;;1.40;58.80;;;;;;5043012;28;20177;-59
2022/03/13 00:53:19;;;;;;;54.87;24.80;;;1.40;58.80;;;;;;5061429;28;20448;-59
2022/03/13 00:55:45;;;;;;;58.83;25.03;;;1.30;58.80;;;;;;5044570;28;20464;-59
2022/03/13 00:58:10;;;;;;;49.13;23.93;;;1.30;58.90;;;;;;5042721;28;20179;-60
2022/03/13 01:00:36;;;;;;;39.27;22.10;;;1.20;59.10;;;;;;5036167;28;20180;-59
2022/03/13 01:03:02;;;;;;;49.30;22.30;;;1.20;59.50;;;;;;5032849;28;20204;-59
2022/03/13 01:05:28;;;;;;;43.23;22.40;;;1.10;59.60;;;;;;5031129;28;20198;-59
2022/03/13 01:07:55;;;;;;;44.60;22.17;;;1.10;59.70;;;;;;5033627;28;20256;-60
2022/03/13 01:10:22;;;;;;;59.57;22.10;;;1.10;60.10;;;;;;5031493;28;20409;-60
2022/03/13 01:12:49;;;;;;;42.73;21.10;;;1.00;60.40;;;;;;5031434;28;20454;-58
2022/03/13 01:15:15;;;;;;;54.07;22.93;;;1.00;60.40;;;;;;5044878;28;20433;-59
2022/03/13 01:17:42;;;;;;;44.40;21.90;;;1.00;60.40;;;;;;5051637;28;20461;-58
2022/03/13 01:20:21;;;;;;;56.00;22.47;;;1.00;60.80;;;;;;5027946;28;20927;-59
2022/03/13 01:22:47;;;;;;;47.47;24.07;;;1.00;60.60;;;;;;5033029;28;20464;-58
2022/03/13 01:25:13;;;;;;;42.67;20.53;;;1.00;60.70;;;;;;5017984;28;20836;-59
2022/03/13 01:27:40;;;;;;;47.30;22.60;;;1.00;60.60;;;;;;5013313;28;20465;-60
2022/03/13 01:30:06;;;;;;;40.67;21.47;;;0.90;60.80;;;;;;5024557;28;20517;-59
2022/03/13 01:32:33;;;;;;;42.77;21.90;;;0.90;60.90;;;;;;5038621;28;20452;-58
2022/03/13 01:34:59;;;;;;;50.63;23.03;;;0.90;61.00;;;;;;5032262;28;20441;-58
2022/03/13 01:37:36;;;;;;;49.77;21.17;;;0.90;61.00;;;;;;5019015;28;20442;-59
2022/03/13 01:40:11;;;;;;;43.00;21.07;;;0.90;60.60;;;;;;5032264;28;20905;-59
2022/03/13 01:42:40;;;;;;;43.23;21.80;;;0.90;60.60;;;;;;5016908;28;20542;-57
2022/03/13 01:45:10;;;;;;;48.73;22.97;;;0.90;61.00;;;;;;5032274;28;20465;-58
2022/03/13 01:47:35;;;;;;;47.17;21.20;;;0.80;61.20;;;;;;5040476;28;20407;-59
2022/03/13 01:50:02;;;;;;;42.60;21.07;;;0.80;61.40;;;;;;5038045;28;20431;-60
2022/03/13 01:52:29;;;;;;;47.97;22.47;;;0.80;61.50;;;;;;5029394;28;20199;-59
2022/03/13 01:54:56;;;;;;;44.13;20.60;;;0.80;61.40;;;;;;5029441;28;21124;-59
2022/03/13 01:57:23;;;;;;;51.53;22.30;;;0.80;60.90;;;;;;5041249;28;20503;-59
2022/03/13 01:59:56;;;;;;;54.70;22.60;;;0.80;60.60;;;;;;5052236;28;20459;-57
2022/03/13 02:02:22;;;;;;;51.27;23.30;;;0.80;60.20;;;;;;5032784;28;20456;-59
2022/03/13 02:04:53;;;;;;;45.90;22.10;;;0.70;60.10;;;;;;5026493;28;20448;-58
2022/03/13 02:07:23;;;;;;;47.13;23.60;;;0.60;60.30;;;;;;5037096;28;20419;-58
2022/03/13 02:09:49;;;;;;;56.90;23.80;;;0.60;60.60;;;;;;5046447;28;20560;-58
2022/03/13 02:12:18;;;;;;;51.90;23.47;;;0.60;60.80;;;;;;5029428;28;20558;-59
2022/03/13 02:14:44;;;;;;;43.83;22.00;;;0.60;61.50;;;;;;5029405;28;20450;-59
2022/03/13 02:17:09;;;;;;;47.10;22.23;;;0.60;61.80;;;;;;5032344;28;20417;-58
2022/03/13 02:19:35;;;;;;;42.03;21.87;;;0.50;61.80;;;;;;5028801;28;21036;-58
2022/03/13 02:22:01;;;;;;;43.40;22.50;;;0.50;61.90;;;;;;5030183;28;20623;-59
2022/03/13 02:24:28;;;;;;;48.27;22.00;;;0.50;62.10;;;;;;5033383;28;20274;-59
2022/03/13 02:26:59;;;;;;;46.43;22.37;;;0.50;62.00;;;;;;5035936;28;20190;-58
2022/03/13 02:29:26;;;;;;;41.37;22.50;;;0.50;61.90;;;;;;5031708;28;20429;-58
2022/03/13 02:31:51;;;;;;;41.37;21.43;;;0.40;61.80;;;;;;5051386;28;20439;-58
2022/03/13 02:34:18;;;;;;;50.07;21.57;;;0.40;62.30;;;;;;5039596;28;20441;-59
2022/03/13 02:36:44;;;;;;;42.60;18.73;;;0.40;62.90;;;;;;5024819;28;20247;-59
2022/03/13 02:39:11;;;;;;;38.87;19.47;;;0.40;63.20;;;;;;5032533;28;20955;-58
2022/03/13 02:41:40;;;;;;;33.23;17.77;;;0.40;63.80;;;;;;5028897;28;20202;-59
2022/03/13 02:44:08;;;;;;;39.43;19.50;;;0.30;63.60;;;;;;5024905;28;20452;-59
2022/03/13 02:46:45;;;;;;;37.77;18.53;;;0.30;64.10;;;;;;5032480;28;20555;-59
2022/03/13 02:49:12;;;;;;;44.93;20.23;;;0.30;64.40;;;;;;5027925;28;20879;-59
2022/03/13 02:51:38;;;;;;;37.17;19.90;;;0.20;64.60;;;;;;5026683;28;20458;-58
2022/03/13 02:54:04;;;;;;;44.97;20.70;;;0.20;64.70;;;;;;5022505;28;20973;-57
2022/03/13 02:56:30;;;;;;;51.70;20.83;;;0.20;65.10;;;;;;5022670;28;20532;-58
2022/03/13 02:58:56;;;;;;;39.87;20.50;;;0.10;65.20;;;;;;5016456;28;20193;-57
2022/03/13 03:01:21;;;;;;;36.27;19.80;;;0.10;66.20;;;;;;5030669;28;20607;-59
2022/03/13 03:03:48;;;;;;;43.13;19.77;;;0.10;66.10;;;;;;5030165;28;20185;-58
2022/03/13 03:06:15;;;;;;;40.40;19.90;;;0.10;66.50;;;;;;5019430;28;20432;-58
2022/03/13 03:08:41;;;;;;;42.33;20.03;;;0.10;66.10;;;;;;5030978;28;20423;-57
2022/03/13 03:11:06;;;;;;;43.60;21.27;;;0.00;66.20;;;;;;5029967;28;20903;-58
2022/03/13 03:13:32;;;;;;;39.00;19.80;;;0.00;66.30;;;;;;5028484;28;20178;-57
2022/03/13 03:15:58;;;;;;;40.00;20.30;;;0.00;66.80;;;;;;5041920;28;20181;-57
2022/03/13 03:18:25;;;;;;;37.77;18.97;;;-0.10;66.80;;;;;;5038061;28;20170;-58
2022/03/13 03:20:51;;;;;;;45.30;19.83;;;-0.10;66.40;;;;;;5023622;28;20427;-58
2022/03/13 03:23:17;;;;;;;45.70;21.60;;;-0.10;66.40;;;;;;5030871;28;20431;-58
2022/03/13 03:25:42;;;;;;;29.60;17.93;;;0.00;66.70;;;;;;5030212;28;20971;-57
2022/03/13 03:28:08;;;;;;;37.23;17.93;;;-0.10;66.90;;;;;;5021878;28;20182;-58
2022/03/13 03:30:34;;;;;;;37.70;19.27;;;-0.10;67.00;;;;;;5029257;28;20181;-57
2022/03/13 03:33:04;;;;;;;35.87;18.37;;;-0.10;67.40;;;;;;5020147;28;20206;-58
2022/03/13 03:35:30;;;;;;;53.73;19.73;;;-0.10;67.60;;;;;;5025563;28;20205;-57
2022/03/13 03:37:57;;;;;;;39.20;18.17;;;-0.10;68.30;;;;;;5030657;28;20924;-57
2022/03/13 03:40:24;;;;;;;37.17;18.83;;;-0.20;68.50;;;;;;5042308;28;20430;-57
2022/03/13 03:42:50;;;;;;;35.77;17.70;;;-0.20;68.90;;;;;;5039990;28;20475;-58
2022/03/13 03:45:17;;;;;;;38.90;19.67;;;-0.20;69.60;;;;;;5017701;28;20463;-61
2022/03/13 03:47:43;;;;;;;40.50;20.03;;;-0.20;70.50;;;;;;5037779;28;20415;-57
2022/03/13 03:50:09;;;;;;;49.77;19.17;;;-0.20;70.70;;;;;;5038860;28;20967;-56
2022/03/13 03:52:35;;;;;;;38.97;18.33;;;-0.20;70.80;;;;;;5031565;28;20442;-58
2022/03/13 03:55:00;;;;;;;38.57;19.50;;;-0.20;70.70;;;;;;5027345;28;20420;-57
2022/03/13 03:57:26;;;;;;;43.60;18.93;;;-0.20;70.50;;;;;;5029876;28;20182;-58
2022/03/13 03:59:52;;;;;;;37.27;18.40;;;-0.20;70.40;;;;;;5029766;28;20581;-58
2022/03/13 04:02:17;;;;;;;41.63;20.20;;;-0.20;69.40;;;;;;5023149;28;20202;-58
2022/03/13 04:04:43;;;;;;;40.57;19.50;;;-0.20;69.40;;;;;;5027654;28;20290;-58
2022/03/13 04:07:09;;;;;;;37.17;18.90;;;-0.20;69.70;;;;;;5032637;28;20190;-57
2022/03/13 04:09:35;;;;;;;35.33;17.30;;;-0.20;70.10;;;;;;5021827;28;20192;-56
2022/03/13 04:12:05;;;;;;;32.63;17.73;;;-0.20;70.70;;;;;;5021633;28;20186;-59
2022/03/13 04:14:30;;;;;;;41.17;19.40;;;-0.20;70.60;;;;;;5025427;28;20989;-57
2022/03/13 04:16:56;;;;;;;37.77;19.50;;;-0.20;70.60;;;;;;5028202;28;20420;-57
2022/03/13 04:19:22;;;;;;;40.40;19.33;;;-0.20;70.70;;;;;;5027402;28;20216;-56
2022/03/13 04:21:48;;;;;;;34.93;18.63;;;-0.20;71.30;;;;;;5032336;28;20213;-58
2022/03/13 04:24:13;;;;;;;40.17;18.60;;;-0.30;71.30;;;;;;5028885;28;20434;-57
2022/03/13 04:26:40;;;;;;;32.10;17.20;;;-0.30;71.10;;;;;;5035769;28;20522;-58
2022/03/13 04:29:09;;;;;;;39.00;19.30;;;-0.30;71.00;;;;;;5027065;28;20212;-57
2022/03/13 04:31:39;;;;;;;38.23;20.10;;;-0.30;70.90;;;;;;5027860;28;20450;-57
2022/03/13 04:34:04;;;;;;;37.33;18.97;;;-0.30;70.90;;;;;;5028878;28;20457;-59
2022/03/13 04:36:33;;;;;;;38.43;18.30;;;-0.40;71.30;;;;;;5032545;28;20454;-58
2022/03/13 04:38:59;;;;;;;37.53;19.40;;;-0.40;71.30;;;;;;5015523;28;20216;-58
2022/03/13 04:41:25;;;;;;;41.60;20.87;;;-0.40;71.40;;;;;;5010163;28;20476;-57
2022/03/13 04:43:53;;;;;;;38.63;17.60;;;-0.50;71.40;;;;;;5012538;28;20889;-57
2022/03/13 04:46:18;;;;;;;37.83;17.67;;;-0.50;71.70;;;;;;5029068;28;20471;-57
2022/03/13 04:48:44;;;;;;;39.17;17.97;;;-0.50;71.90;;;;;;5028591;28;20464;-58
2022/03/13 04:51:10;;;;;;;39.07;18.40;;;-0.60;72.20;;;;;;5029708;28;20263;-58
2022/03/13 04:53:36;;;;;;;34.83;17.87;;;-0.60;73.20;;;;;;5049162;28;20900;-57
2022/03/13 04:56:02;;;;;;;45.03;18.20;;;-0.60;73.80;;;;;;5043754;28;20234;-57
2022/03/13 04:58:27;;;;;;;39.20;18.70;;;-0.60;73.70;;;;;;5020557;28;20175;-57
2022/03/13 05:00:53;;;;;;;37.77;18.13;;;-0.60;73.70;;;;;;5028609;28;20664;-57
2022/03/13 05:03:19;;;;;;;39.17;18.30;;;-0.60;74.00;;;;;;5029118;28;20224;-57
2022/03/13 05:05:45;;;;;;;37.00;19.13;;;-0.60;73.90;;;;;;5025166;28;20987;-57
2022/03/13 05:08:14;;;;;;;44.50;19.97;;;-0.70;74.40;;;;;;5027117;28;20458;-57
2022/03/13 05:10:41;;;;;;;44.50;19.47;;;-0.70;75.20;;;;;;5037990;28;20431;-58
2022/03/13 05:13:14;;;;;;;42.53;18.90;;;-0.80;75.70;;;;;;5032711;28;20507;-55
2022/03/13 05:15:41;;;;;;;41.80;18.40;;;-0.80;76.20;;;;;;5028619;28;20460;-58
2022/03/13 05:18:07;;;;;;;42.67;19.87;;;-0.80;76.20;;;;;;5047593;28;20760;-57
2022/03/13 05:20:34;;;;;;;41.97;20.13;;;-0.80;76.00;;;;;;5024766;28;20514;-58
2022/03/13 05:23:01;;;;;;;38.57;18.03;;;-0.80;75.50;;;;;;5037316;28;20472;-57
2022/03/13 05:25:31;;;;;;;33.83;17.47;;;-0.80;75.50;;;;;;5034912;28;20451;-58
2022/03/13 05:27:57;;;;;;;42.80;19.23;;;-0.80;76.10;;;;;;5029271;28;20433;-57
2022/03/13 05:30:23;;;;;;;42.00;18.87;;;-0.90;77.30;;;;;;5016639;28;20705;-56
2022/03/13 05:32:49;;;;;;;34.20;17.20;;;-0.90;77.60;;;;;;5029429;28;20415;-57
2022/03/13 05:35:16;;;;;;;36.13;17.53;;;-0.90;77.70;;;;;;5031619;28;20444;-57
2022/03/13 05:37:42;;;;;;;42.97;18.97;;;-0.90;78.10;;;;;;5029011;28;20500;-57
2022/03/13 05:40:10;;;;;;;37.07;18.97;;;-0.90;77.50;;;;;;5011253;28;20857;-57
2022/03/13 05:42:36;;;;;;;40.47;18.63;;;-0.90;77.60;;;;;;5015065;28;20202;-59
2022/03/13 05:45:02;;;;;;;36.50;17.80;;;-0.90;77.40;;;;;;5020293;28;20472;-58
2022/03/13 05:47:27;;;;;;;40.37;18.80;;;-0.90;77.90;;;;;;5040148;28;20181;-57
2022/03/13 05:49:53;;;;;;;39.37;19.10;;;-0.90;77.70;;;;;;5032692;28;20260;-57
2022/03/13 05:52:20;;;;;;;37.23;19.13;;;-0.90;77.80;;;;;;5030926;28;20655;-56
2022/03/13 05:54:46;;;;;;;43.57;18.97;;;-0.90;78.70;;;;;;5031867;28;20197;-58
2022/03/13 05:57:12;;;;;;;33.60;17.80;;;-1.00;79.40;;;;;;5027761;28;20443;-57
2022/03/13 05:59:39;;;;;;;38.17;19.77;;;-1.00;80.80;;;;;;5032351;28;20419;-58
2022/03/13 06:02:06;;;;;;;43.30;19.83;;;-1.00;81.60;;;;;;5031663;28;20279;-57
2022/03/13 06:04:33;;;;;;;45.57;20.30;;;-1.00;82.20;;;;;;5032134;28;20461;-57
2022/03/13 06:06:59;;;;;;;37.73;18.73;;;-1.00;82.10;;;;;;5045714;28;20435;-57
2022/03/13 06:09:25;;;;;;;39.23;20.20;;;-0.90;82.10;;;;;;5032175;28;20489;-56
2022/03/13 06:11:50;;;;;;;43.93;20.63;;;-0.90;82.00;;;;;;5030986;28;20424;-58
2022/03/13 06:14:18;;;;;;;44.80;20.43;;;-0.90;81.70;;;;;;5012092;28;20679;-57
2022/03/13 06:16:44;;;;;;;43.57;20.50;;;-0.90;81.90;;;;;;5029577;28;20185;-57
2022/03/13 06:19:10;;;;;;;40.00;18.80;;;-0.90;81.60;;;;;;5022663;28;20446;-58
2022/03/13 06:21:37;;;;;;;49.60;20.23;;;-0.90;81.70;;;;;;5043041;28;20497;-57
2022/03/13 06:24:03;;;;;;;42.07;21.00;;;-0.90;81.50;;;;;;5027306;28;20421;-58
2022/03/13 06:26:29;;;;;;;39.50;20.67;;;-0.90;81.00;;;;;;5031953;28;20954;-57
2022/03/13 06:28:55;;;;;;;49.90;21.57;;;-0.80;80.80;;;;;;5019691;28;20479;-57
2022/03/13 06:31:20;;;;;;;35.87;19.20;;;-0.90;82.30;;;;;;5028174;28;20227;-57
2022/03/13 06:33:46;;;;;;;38.60;19.50;;;-0.80;82.60;;;;;;5031253;28;20610;-57
2022/03/13 06:36:11;;;;;;;46.33;20.73;;;-0.80;82.40;;;;;;5029232;28;20272;-56
2022/03/13 06:38:37;;;;;;;46.80;22.40;;;-0.70;82.40;;;;;;5026390;28;20178;-57
2022/03/13 06:41:03;;;;;;;41.47;22.27;;;-0.70;81.90;;;;;;5024558;28;20673;-56
2022/03/13 06:43:29;;;;;;;44.30;21.40;;;-0.60;80.90;;;;;;5031776;28;20416;-57
2022/03/13 06:45:55;;;;;;;45.40;21.10;;;-0.50;80.00;;;;;;5026658;28;20503;-57
2022/03/13 06:48:21;;;;;;;47.13;21.47;;;-0.50;79.00;;;;;;5017181;28;20174;-57
2022/03/13 06:50:48;;;;;;;41.57;21.67;;;-0.40;80.10;;;;;;5027427;28;20612;-57
2022/03/13 06:53:14;;;;;;;43.30;20.60;;;-0.30;79.30;;;;;;5016965;28;20424;-58
2022/03/13 06:55:40;;;;;;;40.37;20.57;;;-0.20;78.20;;;;;;5036972;28;20532;-57
2022/03/13 06:58:06;;;;;;;44.93;22.10;;;-0.10;78.00;;;;;;5031267;28;20932;-57
2022/03/13 07:00:33;;;;;;;42.23;21.03;;;-0.10;77.20;;;;;;5036103;28;20951;-57
2022/03/13 07:02:59;;;;;;;41.17;19.70;;;0.00;77.10;;;;;;5029714;28;20496;-58
2022/03/13 07:05:25;;;;;;;36.80;19.53;;;0.10;76.80;;;;;;5041078;28;20467;-58
2022/03/13 07:07:55;;;;;;;43.27;19.83;;;0.20;76.60;;;;;;5029933;28;20265;-57
2022/03/13 07:10:21;;;;;;;45.63;20.63;;;0.30;77.00;;;;;;5024187;28;20507;-57
2022/03/13 07:12:47;;;;;;;43.77;20.67;;;0.40;77.50;;;;;;5030820;28;20404;-58
2022/03/13 07:15:14;;;;;;;43.30;19.20;;;0.40;77.20;;;;;;5037417;28;20439;-57
2022/03/13 07:17:43;;;;;;;37.90;19.70;;;0.60;76.50;;;;;;5014144;28;20433;-58
2022/03/13 07:20:09;;;;;;;38.57;19.00;;;0.70;76.50;;;;;;5029703;28;20429;-59
2022/03/13 07:22:35;;;;;;;41.40;20.53;;;0.70;75.60;;;;;;5030388;28;20459;-57
2022/03/13 07:25:01;;;;;;;34.37;18.67;;;0.80;75.90;;;;;;5026858;28;20459;-57
2022/03/13 07:27:26;;;;;;;36.43;19.20;;;0.80;76.30;;;;;;5027235;28;20666;-57
2022/03/13 07:29:52;;;;;;;38.23;18.27;;;0.90;76.00;;;;;;5011301;28;20202;-58
2022/03/13 07:32:18;;;;;;;34.77;18.67;;;1.00;75.00;;;;;;5030408;28;20616;-58
2022/03/13 07:34:43;;;;;;;36.30;18.03;;;1.00;73.30;;;;;;5026877;28;20623;-58
2022/03/13 07:37:10;;;;;;;38.13;18.83;;;1.10;72.30;;;;;;5026023;28;20190;-58
2022/03/13 07:39:37;;;;;;;40.40;19.17;;;1.20;71.20;;;;;;5029086;28;20264;-57
2022/03/13 07:42:04;;;;;;;42.40;19.13;;;1.30;70.60;;;;;;5030224;28;20488;-58
2022/03/13 07:44:29;;;;;;;37.87;19.20;;;1.40;70.10;;;;;;5028618;28;21020;-59
2022/03/13 07:46:55;;;;;;;39.20;20.43;;;1.50;70.40;;;;;;5037476;28;20423;-59
2022/03/13 07:49:21;;;;;;;35.03;17.27;;;1.60;70.40;;;;;;5033405;28;20668;-58
2022/03/13 07:51:47;;;;;;;48.87;18.40;;;1.70;68.60;;;;;;5037963;28;20225;-58
2022/03/13 07:54:14;;;;;;;38.53;17.80;;;1.80;68.50;;;;;;5028555;28;20201;-59
2022/03/13 07:56:40;;;;;;;34.13;18.37;;;1.90;68.50;;;;;;5020712;28;20457;-56
2022/03/13 07:59:06;;;;;;;36.63;19.40;;;2.00;67.30;;;;;;5029782;28;20917;-58
2022/03/13 08:01:32;;;;;;;35.63;17.23;;;2.10;66.40;;;;;;5031879;28;20489;-58
2022/03/13 08:03:57;;;;;;;37.30;17.87;;;2.20;65.50;;;;;;5028159;28;20726;-59
2022/03/13 08:06:23;;;;;;;35.73;18.53;;;2.30;64.50;;;;;;5026084;28;20255;-59
2022/03/13 08:08:49;;;;;;;36.37;19.47;;;2.40;64.20;;;;;;5029248;28;20172;-58
2022/03/13 08:11:15;;;;;;;30.13;17.87;;;2.50;64.50;;;;;;5036099;28;20417;-59
2022/03/13 08:13:41;;;;;;;38.97;18.67;;;2.70;64.30;;;;;;5028249;28;20195;-58
2022/03/13 08:16:07;;;;;;;36.97;18.60;;;2.80;64.00;;;;;;5031712;28;20951;-59
2022/03/13 08:18:34;;;;;;;37.50;19.60;;;3.00;63.60;;;;;;5022628;28;20175;-59
2022/03/13 08:21:00;;;;;;;39.00;19.07;;;3.10;63.10;;;;;;5033854;28;20171;-58
2022/03/13 08:23:25;;;;;;;35.70;20.00;;;3.20;62.90;;;;;;5046639;28;20454;-59
2022/03/13 08:25:51;;;;;;;36.20;19.83;;;3.30;62.30;;;;;;5028588;28;20786;-58
2022/03/13 08:28:17;;;;;;;39.87;19.97;;;3.40;61.60;;;;;;5018869;28;20186;-58
2022/03/13 08:30:42;;;;;;;39.93;20.40;;;3.60;61.30;;;;;;5018316;28;20178;-59
2022/03/13 08:33:08;;;;;;;42.50;20.70;;;3.70;61.10;;;;;;5028599;28;20199;-58
2022/03/13 08:35:34;;;;;;;37.23;18.60;;;3.80;60.60;;;;;;5033790;28;20195;-58
2022/03/13 08:37:59;;;;;;;37.40;18.50;;;4.00;60.00;;;;;;5036785;28;20179;-58
2022/03/13 08:40:25;;;;;;;31.57;16.57;;;4.10;59.50;;;;;;5027738;28;20266;-59
2022/03/13 08:42:54;;;;;;;38.97;18.77;;;4.20;59.30;;;;;;5029800;28;20249;-57
2022/03/13 08:45:20;;;;;;;38.40;18.77;;;4.40;59.50;;;;;;5045659;22;20529;-57
2022/03/13 08:47:47;;;;;;;28.20;16.27;;;4.60;59.30;;;;;;4995220;28;20451;-60
2022/03/13 08:50:14;;;;;;;39.23;19.13;;;4.80;58.60;;;;;;5008450;28;20687;-58
2022/03/13 08:52:40;;;;;;;38.20;18.40;;;4.90;57.80;;;;;;5010987;28;20447;-58
2022/03/13 08:55:08;;;;;;;32.03;17.10;;;5.00;57.40;;;;;;5008493;28;20870;-60
2022/03/13 08:57:34;;;;;;;33.17;17.70;;;5.10;57.10;;;;;;5001947;28;20435;-60
2022/03/13 09:00:00;;;;;;;30.90;18.20;;;5.30;57.20;;;;;;5013032;28;20446;-61
2022/03/13 09:02:26;;;;;;;35.70;19.50;;;5.40;56.80;;;;;;5009400;28;20443;-58
2022/03/13 09:04:52;;;;;;;29.07;17.37;;;5.60;56.70;;;;;;5022661;28;21769;-60
2022/03/13 09:07:17;;;;;;;29.77;17.47;;;5.70;56.40;;;;;;5027504;28;20248;-59
2022/03/13 09:09:43;;;;;;;31.87;16.70;;;5.80;56.00;;;;;;5028397;28;21582;-58
2022/03/13 09:12:10;;;;;;;30.27;16.90;;;6.00;55.80;;;;;;5008544;28;20172;-59
2022/03/13 09:14:37;;;;;;;34.40;18.53;;;6.10;55.10;;;;;;5009685;28;20286;-59
2022/03/13 09:17:03;;;;;;;32.33;16.90;;;6.20;54.50;;;;;;5006386;28;20442;-59
2022/03/13 09:19:29;;;;;;;32.57;16.30;;;6.40;54.30;;;;;;5009142;28;20497;-58
2022/03/13 09:21:54;;;;;;;27.97;15.90;;;6.50;53.90;;;;;;5008464;28;20489;-59
2022/03/13 09:24:20;;;;;;;31.23;15.67;;;6.80;53.60;;;;;;5021772;28;20231;-61
2022/03/13 09:26:45;;;;;;;28.77;16.03;;;7.00;52.50;;;;;;5016292;28;20326;-59
2022/03/13 09:29:12;;;;;;;28.93;16.60;;;7.20;52.50;;;;;;5009890;28;20223;-59
2022/03/13 09:31:38;;;;;;;26.90;14.03;;;7.50;52.00;;;;;;5009322;28;20268;-59
2022/03/13 09:34:04;;;;;;;31.23;14.30;;;7.70;51.20;;;;;;5009154;28;20439;-58
2022/03/13 09:36:30;;;;;;;23.87;14.00;;;7.90;50.30;;;;;;5002365;28;20228;-58
2022/03/13 09:38:55;;;;;;;26.43;14.00;;;8.20;50.40;;;;;;5010797;28;20481;-59
2022/03/13 09:41:21;;;;;;;28.07;14.53;;;8.40;48.90;;;;;;5011907;28;20184;-60
2022/03/13 09:43:47;;;;;;;23.10;13.27;;;8.60;48.20;;;;;;5006193;28;20239;-60
2022/03/13 09:46:16;;;;;;;32.40;13.73;;;8.70;47.00;;;;;;5006481;28;20314;-60
2022/03/13 09:48:42;;;;;;;24.40;12.80;;;8.90;46.60;;;;;;5002976;28;20765;-59
2022/03/13 09:51:09;;;;;;;22.90;12.10;;;9.10;46.10;;;;;;5001395;28;20538;-58
2022/03/13 09:53:35;;;;;;;20.87;11.80;;;9.40;46.00;;;;;;5003838;28;20549;-57
2022/03/13 09:56:03;;;;;;;26.63;12.90;;;9.60;45.00;;;;;;5002794;28;20479;-57
2022/03/13 09:58:29;;;;;;;25.27;13.50;;;9.90;44.20;;;;;;5007170;28;20824;-59
2022/03/13 10:00:56;;;;;;;26.10;12.73;;;10.10;42.90;;;;;;5006816;28;20433;-59
2022/03/13 10:03:22;;;;;;;22.83;12.77;;;10.30;43.10;;;;;;5006802;28;20959;-57
2022/03/13 10:05:49;;;;;;;24.60;14.13;;;10.50;42.00;;;;;;5007245;28;20455;-60
2022/03/13 10:08:17;;;;;;;25.50;12.73;;;10.70;41.70;;;;;;5010737;28;20431;-57
2022/03/13 10:10:47;;;;;;;22.97;12.90;;;10.80;41.70;;;;;;5002828;28;20439;-57
2022/03/13 10:13:36;;;;;;;23.63;12.63;;;11.00;41.00;;;;;;5008095;28;20494;-58
2022/03/13 10:16:02;;;;;;;24.37;13.20;;;11.20;40.40;;;;;;5005858;28;20499;-56
2022/03/13 10:18:28;;;;;;;20.63;12.77;;;11.40;41.40;;;;;;5002970;28;20522;-58
2022/03/13 10:20:56;;;;;;;24.50;13.37;;;11.60;41.00;;;;;;5003443;28;20523;-62
2022/03/13 10:23:22;;;;;;;23.40;12.73;;;11.80;40.10;;;;;;5004680;28;20215;-59
2022/03/13 10:25:53;;;;;;;25.87;12.93;;;11.90;39.50;;;;;;5000195;28;20802;-60
2022/03/13 10:28:30;;;;;;;22.97;12.90;;;12.10;39.30;;;;;;5002724;28;20443;-58
2022/03/13 10:30:59;;;;;;;21.90;12.10;;;12.20;38.90;;;;;;5002268;28;20438;-59
2022/03/13 10:33:26;;;;;;;28.97;12.90;;;12.40;38.70;;;;;;5020309;28;20471;-58
2022/03/13 10:36:10;;;;;;;27.03;14.47;;;12.60;38.10;;;;;;5015856;28;20455;-59
2022/03/13 10:38:36;;;;;;;26.30;13.27;;;12.80;37.80;;;;;;5003356;28;20428;-56
2022/03/13 10:41:09;;;;;;;23.83;13.67;;;13.00;38.00;;;;;;5003996;28;20744;-57
2022/03/13 10:43:39;;;;;;;27.07;14.93;;;13.20;37.40;;;;;;5004006;28;20498;-57
2022/03/13 10:46:05;;;;;;;24.10;12.77;;;13.30;37.00;;;;;;5004205;28;20464;-57
2022/03/13 10:48:33;;;;;;;24.07;13.60;;;13.50;37.50;;;;;;5011463;28;20428;-58
2022/03/13 10:51:01;;;;;;;22.13;13.20;;;13.60;36.50;;;;;;5010277;28;20433;-57
2022/03/13 10:53:28;;;;;;;25.67;14.23;;;13.70;36.60;;;;;;5001528;28;20432;-57
2022/03/13 10:56:01;;;;;;;23.93;12.93;;;13.80;36.90;;;;;;4999752;28;20956;-57
2022/03/13 10:58:40;;;;;;;26.57;12.97;;;14.00;36.80;;;;;;5000995;28;20447;-57
2022/03/13 11:01:09;;;;;;;21.50;12.33;;;14.20;36.10;;;;;;5001635;28;20920;-58
2022/03/13 11:03:37;;;;;;;22.70;12.73;;;14.40;35.80;;;;;;5002637;28;20428;-57
2022/03/13 11:06:03;;;;;;;24.13;14.17;;;14.50;35.70;;;;;;5004402;28;20537;-57
2022/03/13 11:08:29;;;;;;;21.67;12.87;;;14.70;35.10;;;;;;4999886;28;20588;-56
2022/03/13 11:10:57;;;;;;;24.70;12.90;;;14.80;35.40;;;;;;4996591;28;20569;-58
2022/03/13 11:13:27;;;;;;;20.57;13.07;;;15.00;35.60;;;;;;4997912;28;20442;-59
2022/03/13 11:15:55;;;;;;;22.20;13.23;;;15.10;35.70;;;;;;5000844;28;20542;-58
2022/03/13 11:18:28;;;;;;;23.50;13.83;;;15.20;35.60;;;;;;4996612;28;20557;-58
2022/03/13 11:20:53;;;;;;;21.70;13.10;;;15.40;35.50;;;;;;5006365;28;20442;-56
2022/03/13 11:23:20;;;;;;;25.80;14.10;;;15.60;34.80;;;;;;5001818;28;20455;-56
2022/03/13 11:25:49;;;;;;;20.90;13.50;;;15.80;35.80;;;;;;5018716;28;20192;-57
2022/03/13 11:28:16;;;;;;;24.67;13.00;;;16.00;35.20;;;;;;4996383;28;20782;-56
2022/03/13 11:30:41;;;;;;;23.93;13.50;;;16.20;34.10;;;;;;4997193;28;20447;-57
2022/03/13 11:33:08;;;;;;;22.50;13.53;;;16.50;34.60;;;;;;4999545;28;20497;-54
2022/03/13 11:35:33;;;;;;;23.83;13.80;;;16.80;34.30;;;;;;4999636;28;20207;-54
2022/03/13 11:38:08;;;;;;;20.70;13.40;;;17.10;34.30;;;;;;5002671;28;20420;-58
2022/03/13 11:40:37;;;;;;;22.10;13.03;;;17.50;33.70;;;;;;5010324;28;20211;-57
2022/03/13 11:43:09;;;;;;;22.40;13.00;;;17.80;31.90;;;;;;5004740;28;20470;-56
2022/03/13 11:45:39;;;;;;;24.00;14.33;;;18.10;32.30;;;;;;4999045;28;20496;-58
2022/03/13 11:48:05;;;;;;;25.07;13.27;;;18.40;31.90;;;;;;5004136;28;20426;-58
2022/03/13 11:51:01;;;;;;;23.37;13.97;;;18.50;30.50;;;;;;5004073;28;20427;-58
2022/03/13 11:53:28;;;;;;;24.87;13.50;;;18.60;30.20;;;;;;5002251;28;20192;-58
2022/03/13 11:55:57;;;;;;;28.00;13.50;;;18.70;29.80;;;;;;5003519;28;20459;-58
2022/03/13 11:58:48;;;;;;;23.73;12.07;;;18.80;29.80;;;;;;5003293;28;21273;-58
2022/03/13 12:01:18;;;;;;;20.60;12.17;;;18.90;29.30;;;;;;4999948;28;20482;-58
2022/03/13 12:04:09;;;;;;;23.10;12.00;;;18.90;28.80;;;;;;5001624;28;20466;-59
2022/03/13 12:06:47;;;;;;;21.47;12.30;;;18.90;28.80;;;;;;5014995;28;20871;-58
2022/03/13 12:09:20;;;;;;;28.93;14.80;;;19.00;28.90;;;;;;5001525;28;20517;-58
2022/03/13 12:11:50;;;;;;;27.53;13.83;;;19.00;29.80;;;;;;5002096;28;20726;-57
2022/03/13 12:14:18;;;;;;;22.73;11.90;;;19.20;31.90;;;;;;5001225;28;20423;-56
2022/03/13 12:16:46;;;;;;;17.03;11.40;;;19.20;29.30;;;;;;5000872;28;20887;-56
2022/03/13 12:19:16;;;;;;;20.90;12.07;;;19.20;29.10;;;;;;5000078;28;20431;-55
2022/03/13 12:21:47;;;;;;;21.83;11.40;;;19.40;29.60;;;;;;5002288;28;20464;-59
2022/03/13 12:24:15;;;;;;;21.73;10.60;;;19.50;28.30;;;;;;4999052;28;20433;-57
2022/03/13 12:26:46;;;;;;;21.00;10.50;;;19.60;28.00;;;;;;5020028;28;20488;-58
2022/03/13 12:29:13;;;;;;;17.80;10.87;;;19.70;27.50;;;;;;5002143;28;20420;-57
2022/03/13 12:31:41;;;;;;;18.00;11.43;;;19.50;27.20;;;;;;5015108;28;20529;-60